SBSVSBQV

Guest
Details From SBSV - Salvador Bahia Deputado Luis Eduardo M
To SBQV - VITORIA DA CONQUISTA
Flight Number -
Tags generated
Created
Modified
Stats Distance 219 nm / 405 km
Max Altitude 24,800 ft / 7,559 m
Waypoints 4
Social Downloads 0
Likes 0
Share VATSIM

Download

Looking for another format? Having issues loading an existing format? Contact us
Advertisement - Login to hide

Notes

Basic altitude profile: - Ascent Rate: 2500ft/min - Ascent Speed: 250kts - Cruise Altitude: 35000ft - Cruise Speed: 420kts - Descent Rate: 1500ft/min - Descent Speed: 250kts Options: - Use NATs: yes - Use PACOTS: yes - Use low airways: yes - Use high airways: yes

Route

SBSV JUDAS UW58 GONZA SBQV

ID Type Via Altitude Latitude Longitude Leg Dist Tot Dist Heading (true) Name
O SBSV APT - 0 ft / 0 m -12.91099˚ -38.33104˚ - 0 nm - Salvador Bahia Deputado Luis Eduardo M
JUDAS FIX - 24,800 ft / 7,559 m -13.81617˚ -39.07583˚ 69 nm 69 nm 219° / 219° -
GONZA FIX UW58 (AWY-HI) 24,500 ft / 7,468 m -15.20617˚ -40.24400˚ 107 nm 177 nm 219° / 219° -
O SBQV APT - 0 ft / 0 m -14.86276˚ -40.86310˚ 41 nm 218 nm 300° / 300° VITORIA DA CONQUISTA

Altitude Profile

Advertisement - Login to hide

Weather


0- 5 10 15 20 25 30 35+ Temperature / ° C

Clouds and Precipitation
Forecast for 2017-12-12 12:00 UTC. Updated an hour ago

Ground ~20,000 ft ~40,000 ft Winds

SBSV

Details ICAO SBSV (SSA)
Name Salvador Bahia Deputado Luis Eduardo M
Region Brazil
Timezone America/Bahia (UTC-3.0)
Stats Elevation 64 ft / 20 m (AMSL)
Location -12.910994° -38.331043°
Runways 2
Magnetic Variation 23.436° W

METAR

SBSV 121200Z 04010KT 9999 SCT017 BKN070 28/23 Q1013

Decode

TAF

TAF SBSV 121000Z 1212/1312 06012KT 7000 BKN016 FEW020TCU TX29/1215Z TN23/1307Z PROB30 TEMPO 1214/1216 5000 SHRA TEMPO 1220/1223 02008KT 5000 SHRA BECMG 1300/1302 34005KT SCT017 BECMG 1306/1307 02005KT RMK PEI

Decode

Departure Runways

ID Width Length Bearing (true) Bearing (mag) Surface Threshold Offset Overrun Length
10 148 ft / 45 m 9,845 ft / 3,001 m 78.32° 101.76° Asphalt 0 ft / 0 m 205 ft / 62 m
17 148 ft / 45 m 5,014 ft / 1,528 m 144.04° 167.48° Asphalt 0 ft / 0 m 0 ft / 0 m
28 148 ft / 45 m 9,845 ft / 3,001 m 258.31° 281.75° Asphalt 0 ft / 0 m 205 ft / 62 m
35 148 ft / 45 m 5,014 ft / 1,528 m 324.04° 347.48° Asphalt 0 ft / 0 m 0 ft / 0 m

SBQV

Details ICAO SBQV (VDC)
Name VITORIA DA CONQUISTA
Region Brazil
Timezone America/Bahia (UTC-3.0)
Stats Elevation 2,998 ft / 914 m (AMSL)
Location -14.862759° -40.863104°
Runways 1
Magnetic Variation 23.431° W

METAR

SBQV 121200Z 34007KT 9999 BKN007 BKN070 21/19 Q1018

Decode

TAF

Not found

Destination Runways

ID Width Length Bearing (true) Bearing (mag) Surface Threshold Offset Overrun Length
15 98 ft / 30 m 5,831 ft / 1,777 m 126.17° 149.60° Asphalt 0 ft / 0 m 175 ft / 53 m
33 98 ft / 30 m 5,831 ft / 1,777 m 306.17° 329.60° Asphalt 0 ft / 0 m 0 ft / 0 m

Popular Alternatives